| time (UTC) | temp F | wind direction | speed knots | gust knots | rain 1hr in | rain 24hr in | rain mn in | humidity % | barometer mb |
| 20260507094506 | 58 | 360 | 4.3 | 7.0 | 0.00 | 0.00 | 0.00 | 57 | 1010.6 |
| 20260507093005 | 59 | 360 | 2.6 | 5.2 | 0.00 | 0.00 | 0.00 | 56 | 1010.8 |
| 20260507091505 | 59 | 360 | 2.6 | 7.8 | 0.00 | 0.00 | 0.00 | 56 | 1010.8 |
| 20260507090106 | 59 | 360 | 1.7 | 3.5 | 0.00 | 0.00 | 0.00 | 54 | 1010.9 |
| 20260507084600 | 60 | 360 | 3.5 | 5.2 | 0.00 | 0.00 | 0.00 | 55 | 1011.2 |
| 20260507083055 | 61 | 360 | 2.6 | 4.3 | 0.00 | 0.00 | 0.00 | 54 | 1011.3 |
| 20260507081552 | 61 | 360 | 0.9 | 2.6 | 0.00 | 0.00 | 0.00 | 54 | 1011.3 |
| 20260507080050 | 62 | 360 | 0.0 | 2.6 | 0.00 | 0.00 | 0.00 | 52 | 1011.3 |
| 20260507074551 | 63 | 360 | 0.9 | 2.6 | 0.00 | 0.00 | 0.00 | 50 | 1011.3 |
| 20260507073047 | 64 | 360 | 1.7 | 5.2 | 0.00 | 0.00 | 0.00 | 48 | 1011.4 |
| 20260507071540 | 67 | 360 | 0.9 | 7.0 | 0.00 | 0.00 | 0.00 | 45 | 1011.4 |
| 20260507070045 | 67 | 360 | 4.3 | 7.0 | 0.00 | 0.00 | 0.00 | 45 | 1011.5 |
| 20260507064544 | 68 | 360 | 3.5 | 8.7 | 0.00 | 0.00 | 0.00 | 45 | 1011.6 |
| 20260507063037 | 66 | 360 | 5.2 | 9.6 | 0.00 | 0.00 | 0.00 | 48 | 1011.5 |
| 20260507061538 | 65 | 360 | 2.6 | 3.5 | 0.00 | 0.00 | 0.00 | 47 | 1011.6 |
| 20260507060100 | 66 | 360 | 2.6 | 4.3 | 0.00 | 0.00 | 0.00 | 45 | 1011.9 |
| 20260507054605 | 68 | 360 | 2.6 | 4.3 | 0.00 | 0.00 | 0.00 | 43 | 1011.9 |
| 20260507053033 | 68 | 360 | 4.3 | 7.0 | 0.00 | 0.00 | 0.00 | 46 | 1011.9 |
| 20260507051532 | 68 | 360 | 3.5 | 5.2 | 0.00 | 0.00 | 0.00 | 46 | 1011.9 |
| 20260507050035 | 68 | 360 | 5.2 | 7.0 | 0.00 | 0.00 | 0.00 | 45 | 1012.0 |
| 20260507044531 | 69 | 360 | 4.3 | 7.8 | 0.00 | 0.00 | 0.00 | 44 | 1011.9 |
| 20260507043031 | 70 | 360 | 6.1 | 10.4 | 0.00 | 0.00 | 0.00 | 43 | 1011.8 |
| 20260507041530 | 69 | 360 | 5.2 | 8.7 | 0.00 | 0.00 | 0.00 | 43 | 1011.7 |
| 20260507040037 | 70 | 360 | 7.8 | 10.4 | 0.00 | 0.00 | 0.00 | 42 | 1011.6 |
| 20260507034536 | 70 | 360 | 7.0 | 11.3 | 0.00 | 0.00 | 0.00 | 42 | 1011.4 |
| 20260507033042 | 70 | 360 | 7.0 | 9.6 | 0.00 | 0.00 | 0.00 | 43 | 1011.4 |
| 20260507031544 | 70 | 360 | 4.3 | 10.4 | 0.00 | 0.00 | 0.00 | 44 | 1011.3 |
| 20260507030031 | 71 | 360 | 4.3 | 10.4 | 0.00 | 0.00 | 0.00 | 45 | 1011.2 |
| 20260507024527 | 71 | 360 | 3.5 | 13.0 | 0.00 | 0.00 | 0.00 | 43 | 1011.0 |
| 20260507023026 | 72 | 360 | 6.1 | 11.3 | 0.00 | 0.00 | 0.00 | 42 | 1010.9 |
| 20260507021526 | 73 | 360 | 0.9 | 5.2 | 0.00 | 0.00 | 0.00 | 40 | 1010.8 |
| 20260507020026 | 74 | 360 | 5.2 | 10.4 | 0.00 | 0.00 | 0.00 | 39 | 1010.8 |
| 20260507014535 | 76 | 360 | 7.0 | 12.2 | 0.00 | 0.00 | 0.00 | 36 | 1010.8 |
| 20260507013033 | 77 | 360 | 4.3 | 9.6 | 0.00 | 0.00 | 0.00 | 33 | 1010.6 |
| 20260507011532 | 78 | 18 | 5.2 | 11.3 | 0.00 | 0.00 | 0.00 | 33 | 1010.6 |
| 20260507010029 | 79 | 15 | 3.5 | 10.4 | 0.00 | 0.00 | 0.00 | 32 | 1010.6 |
| 20260507004521 | 80 | 5 | 0.9 | 5.2 | 0.00 | 0.00 | 0.00 | 25 | 1010.7 |
| 20260507003051 | 80 | 11 | 3.5 | 8.7 | 0.00 | 0.00 | 0.00 | 20 | 1010.6 |
| 20260507001525 | 80 | 11 | 8.7 | 13.0 | 0.00 | 0.00 | 0.00 | 20 | 1010.5 |
| 20260507000020 | 80 | 11 | 7.8 | 12.2 | 0.00 | 0.00 | 0.00 | 20 | 1010.4 |
| 20260506234518 | 80 | 11 | 6.1 | 12.2 | 0.00 | 0.00 | 0.00 | 21 | 1010.4 |
| 20260506233017 | 80 | 11 | 9.6 | 13.0 | 0.00 | 0.00 | 0.00 | 20 | 1010.5 |
| 20260506231516 | 80 | 11 | 6.1 | 13.9 | 0.00 | 0.00 | 0.00 | 20 | 1010.6 |
| 20260506230014 | 80 | 10 | 8.7 | 13.0 | 0.00 | 0.00 | 0.00 | 20 | 1010.7 |
| 20260506224512 | 80 | 9 | 8.7 | 14.8 | 0.00 | 0.00 | 0.00 | 20 | 1010.8 |
| 20260506223016 | 80 | 16 | 7.0 | 12.2 | 0.00 | 0.00 | 0.00 | 20 | 1011.1 |
| 20260506221508 | 79 | 360 | 9.6 | 13.9 | 0.00 | 0.00 | 0.00 | 20 | 1011.3 |
| 20260506220007 | 79 | 360 | 4.3 | 13.0 | 0.00 | 0.00 | 0.00 | 21 | 1011.6 |
| 20260506214505 | 79 | 360 | 8.7 | 13.9 | 0.00 | 0.00 | 0.00 | 21 | 1011.7 |
| 20260506213002 | 79 | 360 | 10.4 | 13.9 | 0.00 | 0.00 | 0.00 | 22 | 1011.8 |
| 20260506211501 | 79 | 360 | 5.2 | 13.9 | 0.00 | 0.00 | 0.00 | 22 | 1012.0 |
| 20260506210059 | 78 | 360 | 6.1 | 13.9 | 0.00 | 0.00 | 0.00 | 23 | 1012.1 |
| 20260506204548 | 78 | 360 | 8.7 | 13.9 | 0.00 | 0.00 | 0.00 | 23 | 1012.3 |
| 20260506203043 | 77 | 360 | 6.1 | 13.9 | 0.00 | 0.00 | 0.00 | 24 | 1012.4 |
| 20260506201543 | 77 | 360 | 7.8 | 13.0 | 0.00 | 0.00 | 0.00 | 24 | 1012.6 |
| 20260506200041 | 77 | 360 | 7.8 | 16.5 | 0.00 | 0.00 | 0.00 | 24 | 1012.8 |
| 20260506194541 | 76 | 360 | 10.4 | 14.8 | 0.00 | 0.00 | 0.00 | 25 | 1013.0 |
| 20260506193039 | 76 | 360 | 8.7 | 13.0 | 0.00 | 0.00 | 0.00 | 24 | 1013.1 |
| 20260506191535 | 76 | 360 | 3.5 | 11.3 | 0.00 | 0.00 | 0.00 | 25 | 1013.2 |
| 20260506190038 | 76 | 360 | 8.7 | 12.2 | 0.00 | 0.00 | 0.00 | 25 | 1013.4 |
| 20260506184541 | 75 | 360 | 1.7 | 15.6 | 0.00 | 0.00 | 0.00 | 25 | 1013.3 |
| 20260506183030 | 76 | 360 | 7.8 | 12.2 | 0.00 | 0.00 | 0.00 | 25 | 1013.4 |
| 20260506181528 | 74 | 360 | 7.8 | 12.2 | 0.00 | 0.00 | 0.00 | 25 | 1013.6 |
| 20260506180030 | 74 | 360 | 4.3 | 13.9 | 0.00 | 0.00 | 0.00 | 25 | 1013.7 |
| 20260506174525 | 74 | 360 | 5.2 | 9.6 | 0.00 | 0.00 | 0.00 | 25 | 1013.7 |
| 20260506173030 | 72 | 360 | 1.7 | 8.7 | 0.00 | 0.00 | 0.00 | 28 | 1013.6 |
| 20260506171521 | 72 | 360 | 3.5 | 7.0 | 0.00 | 0.00 | 0.00 | 28 | 1013.7 |
| 20260506170019 | 71 | 360 | 0.0 | 4.3 | 0.00 | 0.00 | 0.00 | 29 | 1013.6 |
| 20260506164516 | 71 | 360 | 2.6 | 5.2 | 0.00 | 0.00 | 0.00 | 31 | 1013.5 |
| 20260506163022 | 70 | 360 | 1.7 | 3.5 | 0.00 | 0.00 | 0.00 | 34 | 1013.5 |
| 20260506161511 | 68 | 360 | 1.7 | 4.3 | 0.00 | 0.00 | 0.00 | 36 | 1013.5 |
| 20260506160006 | 66 | 360 | 1.7 | 4.3 | 0.00 | 0.00 | 0.00 | 39 | 1013.5 |
| 20260506154502 | 65 | 360 | 1.7 | 3.5 | 0.00 | 0.00 | 0.00 | 41 | 1013.5 |
| 20260506153103 | 64 | 360 | 1.7 | 4.3 | 0.00 | 0.00 | 0.00 | 42 | 1013.6 |
| 20260506151557 | 63 | 360 | 0.9 | 4.3 | 0.00 | 0.00 | 0.00 | 43 | 1013.6 |
| 20260506150053 | 62 | 360 | 3.5 | 7.0 | 0.00 | 0.00 | 0.00 | 44 | 1013.8 |
| 20260506144548 | 61 | 360 | 5.2 | 8.7 | 0.00 | 0.00 | 0.00 | 48 | 1013.7 |
| 20260506143045 | 59 | 360 | 5.2 | 12.2 | 0.00 | 0.00 | 0.00 | 50 | 1013.5 |
| 20260506141541 | 58 | 360 | 7.0 | 10.4 | 0.00 | 0.00 | 0.00 | 51 | 1013.4 |
| 20260506140037 | 57 | 360 | 7.8 | 12.2 | 0.00 | 0.00 | 0.00 | 53 | 1013.4 |
| 20260506134531 | 55 | 360 | 6.1 | 11.3 | 0.00 | 0.00 | 0.00 | 55 | 1013.4 |
| 20260506133030 | 55 | 360 | 7.0 | 13.0 | 0.00 | 0.00 | 0.00 | 55 | 1013.1 |
| 20260506131541 | 54 | 360 | 7.0 | 11.3 | 0.00 | 0.00 | 0.00 | 56 | 1012.9 |
| 20260506130029 | 55 | 360 | 8.7 | 13.0 | 0.00 | 0.00 | 0.00 | 56 | 1012.7 |
| 20260506124526 | 55 | 360 | 7.0 | 13.0 | 0.00 | 0.00 | 0.00 | 56 | 1012.5 |
| 20260506123026 | 54 | 360 | 12.2 | 15.6 | 0.00 | 0.00 | 0.00 | 56 | 1012.3 |
| 20260506121525 | 55 | 360 | 9.6 | 16.5 | 0.00 | 0.00 | 0.00 | 56 | 1012.2 |
| 20260506120025 | 54 | 360 | 10.4 | 15.6 | 0.00 | 0.00 | 0.00 | 57 | 1012.2 |
| 20260506114522 | 54 | 360 | 7.8 | 14.8 | 0.00 | 0.00 | 0.00 | 57 | 1012.2 |
| 20260506113022 | 54 | 360 | 10.4 | 14.8 | 0.00 | 0.00 | 0.00 | 57 | 1012.1 |
| 20260506111522 | 54 | 360 | 9.6 | 13.9 | 0.00 | 0.00 | 0.00 | 58 | 1012.1 |
| 20260506110022 | 54 | 360 | 10.4 | 14.8 | 0.00 | 0.00 | 0.00 | 59 | 1012.2 |
| 20260506104517 | 53 | 360 | 10.4 | 15.6 | 0.00 | 0.00 | 0.00 | 60 | 1012.0 |
| 20260506103016 | 53 | 360 | 10.4 | 19.1 | 0.00 | 0.00 | 0.00 | 60 | 1012.1 |
| 20260506101527 | 53 | 360 | 12.2 | 17.4 | 0.00 | 0.00 | 0.00 | 61 | 1012.1 |
| 20260506100014 | 53 | 360 | 10.4 | 15.6 | 0.00 | 0.00 | 0.00 | 61 | 1012.0 |